Time;durP1;ratioP1;P1;durP2;ratioP2;P2;SDS_P1;SDS_P2;PMS_P1;PMS_P2;Temp;Humidity;BMP_temperature;BMP_pressure;BME280_temperature;BME280_humidity;BME280_pressure;Samples;Min_cycle;Max_cycle;Signal;HPM_P1;HPM_P2
2022/01/08 00:01:42;;;;;;;2.08;1.83;;;;;;;;;;4932432;28;20063;-67
2022/01/08 00:04:07;;;;;;;1.20;1.17;;;;;;;;;;4930366;29;20112;-68
2022/01/08 00:06:33;;;;;;;2.17;1.98;;;;;;;;;;4936021;29;20580;-68
2022/01/08 00:08:58;;;;;;;2.53;2.17;;;;;;;;;;4936581;28;20549;-67
2022/01/08 00:11:26;;;;;;;4.18;1.50;;;;;;;;;;4927614;28;20032;-67
2022/01/08 00:13:52;;;;;;;1.80;1.70;;;;;;;;;;4950606;28;20150;-69
2022/01/08 00:16:18;;;;;;;2.42;2.20;;;;;;;;;;4928644;29;20079;-67
2022/01/08 00:18:43;;;;;;;2.85;1.77;;;;;;;;;;4931813;29;20039;-68
2022/01/08 00:21:09;;;;;;;2.10;1.88;;;;;;;;;;4926031;28;20083;-67
2022/01/08 00:23:34;;;;;;;3.88;2.15;;;;;;;;;;4949895;28;20047;-68
2022/01/08 00:26:00;;;;;;;2.25;2.00;;;;;;;;;;4927275;29;20043;-68
2022/01/08 00:28:26;;;;;;;2.22;1.85;;;;;;;;;;4927105;29;20051;-67
2022/01/08 00:30:52;;;;;;;2.10;1.65;;;;;;;;;;4948735;28;20054;-68
2022/01/08 00:33:17;;;;;;;1.80;1.70;;;;;;;;;;4927132;28;20047;-67
2022/01/08 00:35:43;;;;;;;2.33;1.98;;;;;;;;;;4924634;29;20050;-69
2022/01/08 00:38:08;;;;;;;1.00;1.00;;;;;;;;;;4928562;29;20042;-71
2022/01/08 00:40:34;;;;;;;1.05;1.05;;;;;;;;;;4934476;29;20043;-67
2022/01/08 00:43:00;;;;;;;1.27;1.17;;;;;;;;;;4929422;28;20043;-68
2022/01/08 00:45:25;;;;;;;1.80;1.67;;;;;;;;;;4934435;28;20042;-68
2022/01/08 00:47:50;;;;;;;1.67;1.58;;;;;;;;;;4940428;29;20035;-68
2022/01/08 00:50:16;;;;;;;2.65;2.30;;;;;;;;;;4953575;28;20113;-68
2022/01/08 00:52:42;;;;;;;2.25;1.17;;;;;;;;;;4942956;28;20486;-67
2022/01/08 00:55:08;;;;;;;1.92;1.20;;;;;;;;;;4935024;28;20054;-67
2022/01/08 00:57:34;;;;;;;2.35;1.50;;;;;;;;;;4936953;29;20105;-67
2022/01/08 00:59:59;;;;;;;0.85;0.85;;;;;;;;;;4946463;28;20496;-67
2022/01/08 01:02:25;;;;;;;1.63;1.52;;;;;;;;;;4928832;28;20099;-66
2022/01/08 01:04:51;;;;;;;2.22;2.03;;;;;;;;;;4929871;28;20031;-67
2022/01/08 01:07:16;;;;;;;1.58;1.48;;;;;;;;;;4933441;28;20062;-66
2022/01/08 01:09:42;;;;;;;1.75;1.65;;;;;;;;;;4950013;28;20039;-67
2022/01/08 01:12:08;;;;;;;2.40;1.65;;;;;;;;;;4940973;29;20023;-66
2022/01/08 01:14:33;;;;;;;2.05;1.85;;;;;;;;;;4928484;28;20050;-70
2022/01/08 01:16:59;;;;;;;2.05;1.58;;;;;;;;;;4930816;28;20094;-68
2022/01/08 01:19:25;;;;;;;1.67;1.58;;;;;;;;;;4942702;29;20698;-71
2022/01/08 01:21:53;;;;;;;3.58;2.22;;;;;;;;;;4930224;29;20059;-68
2022/01/08 01:24:22;;;;;;;2.17;1.98;;;;;;;;;;4943011;29;20563;-72
2022/01/08 01:27:12;;;;;;;2.40;2.20;;;;;;;;;;4935107;28;20114;-72
2022/01/08 01:29:42;;;;;;;3.25;1.95;;;;;;;;;;4937398;28;20043;-68
2022/01/08 01:48:20;;;;;;;2.28;2.08;;;;;;;;;;4938953;28;20049;-68
2022/01/08 01:50:46;;;;;;;2.70;2.50;;;;;;;;;;4936273;28;20039;-68
2022/01/08 01:53:11;;;;;;;3.83;2.72;;;;;;;;;;4941814;29;20046;-68
2022/01/08 01:55:37;;;;;;;4.45;3.15;;;;;;;;;;4941240;28;20037;-68
2022/01/08 01:58:05;;;;;;;3.05;2.67;;;;;;;;;;4944271;29;20043;-67
2022/01/08 02:00:32;;;;;;;4.88;2.85;;;;;;;;;;4947480;28;20175;-68
2022/01/08 02:02:59;;;;;;;3.35;3.00;;;;;;;;;;4937488;29;20041;-68
2022/01/08 02:05:25;;;;;;;3.38;2.78;;;;;;;;;;4924957;29;20684;-67
2022/01/08 02:07:50;;;;;;;3.20;2.70;;;;;;;;;;4921628;29;20040;-67
2022/01/08 02:10:16;;;;;;;3.00;2.70;;;;;;;;;;4932282;28;20035;-68
2022/01/08 02:12:41;;;;;;;3.30;2.42;;;;;;;;;;4930282;28;20035;-68
2022/01/08 02:15:08;;;;;;;2.83;2.60;;;;;;;;;;4921581;29;20034;-68
2022/01/08 02:17:33;;;;;;;4.75;3.75;;;;;;;;;;4926055;29;20035;-68
2022/01/08 02:19:58;;;;;;;8.98;3.78;;;;;;;;;;4921871;28;20400;-68
2022/01/08 02:22:24;;;;;;;10.15;3.95;;;;;;;;;;4925543;28;20400;-68
2022/01/08 02:24:50;;;;;;;6.88;3.42;;;;;;;;;;4945226;28;20045;-67
2022/01/08 02:27:16;;;;;;;3.58;3.00;;;;;;;;;;4924767;29;20035;-68
2022/01/08 02:29:42;;;;;;;3.10;2.83;;;;;;;;;;4939719;29;20078;-68
2022/01/08 02:32:14;;;;;;;3.88;2.97;;;;;;;;;;4930709;28;20043;-67
2022/01/08 02:34:41;;;;;;;4.03;3.30;;;;;;;;;;4927931;28;20083;-68
2022/01/08 02:37:07;;;;;;;3.63;3.20;;;;;;;;;;4929740;28;20050;-66
2022/01/08 02:39:41;;;;;;;4.15;3.65;;;;;;;;;;4927488;29;20420;-67
2022/01/08 02:42:08;;;;;;;4.80;3.13;;;;;;;;;;4929405;28;20044;-67
2022/01/08 02:44:34;;;;;;;6.20;3.63;;;;;;;;;;4933722;28;20039;-68
2022/01/08 02:47:01;;;;;;;5.65;4.05;;;;;;;;;;4934830;29;20039;-67
2022/01/08 02:49:27;;;;;;;8.50;3.80;;;;;;;;;;4925583;29;20126;-67
2022/01/08 02:51:52;;;;;;;5.47;4.28;;;;;;;;;;4944034;28;20130;-66
2022/01/08 02:54:18;;;;;;;13.35;4.80;;;;;;;;;;4926788;28;20146;-66
2022/01/08 02:56:46;;;;;;;23.77;4.40;;;;;;;;;;4924156;28;20035;-67
2022/01/08 02:59:13;;;;;;;46.85;4.50;;;;;;;;;;4942115;29;20195;-68
2022/01/08 03:01:39;;;;;;;21.45;4.38;;;;;;;;;;4925103;29;20031;-66
2022/01/08 03:04:06;;;;;;;7.55;4.13;;;;;;;;;;4924836;29;20046;-68
2022/01/08 03:06:32;;;;;;;53.30;4.90;;;;;;;;;;4925517;28;20039;-67
2022/01/08 03:08:57;;;;;;;110.95;5.43;;;;;;;;;;4930283;29;20040;-67
2022/01/08 03:11:23;;;;;;;34.25;4.65;;;;;;;;;;4921066;29;20043;-67
2022/01/08 03:13:49;;;;;;;17.70;5.03;;;;;;;;;;4922262;29;20098;-68
2022/01/08 03:16:14;;;;;;;29.75;4.47;;;;;;;;;;4940812;28;20035;-68
2022/01/08 03:18:40;;;;;;;11.70;4.82;;;;;;;;;;4929565;28;20405;-67
2022/01/08 03:21:15;;;;;;;10.20;3.92;;;;;;;;;;4925172;29;20042;-68
2022/01/08 03:23:51;;;;;;;69.53;5.80;;;;;;;;;;4931111;29;20095;-68
2022/01/08 03:26:19;;;;;;;24.65;4.85;;;;;;;;;;4930425;28;20032;-68
2022/01/08 03:28:45;;;;;;;26.85;5.35;;;;;;;;;;4926653;28;20036;-67
2022/01/08 03:31:12;;;;;;;12.95;3.95;;;;;;;;;;4931537;29;20039;-67
2022/01/08 03:33:37;;;;;;;9.48;5.22;;;;;;;;;;4927280;29;20024;-68
2022/01/08 03:36:03;;;;;;;4.50;3.53;;;;;;;;;;4926798;29;20035;-69
2022/01/08 03:38:30;;;;;;;5.10;3.85;;;;;;;;;;4933798;28;20046;-68
2022/01/08 03:40:56;;;;;;;3.40;2.95;;;;;;;;;;4931820;28;20046;-68
2022/01/08 03:43:22;;;;;;;5.60;4.20;;;;;;;;;;4928738;29;20587;-69
2022/01/08 03:45:47;;;;;;;6.28;4.22;;;;;;;;;;4927108;29;20118;-68
2022/01/08 03:48:25;;;;;;;11.60;4.13;;;;;;;;;;4927192;28;20042;-68
2022/01/08 03:50:51;;;;;;;7.00;4.07;;;;;;;;;;4933955;28;20035;-68
2022/01/08 03:53:17;;;;;;;8.10;4.20;;;;;;;;;;4936927;29;20091;-68
2022/01/08 03:55:42;;;;;;;5.30;4.03;;;;;;;;;;4926743;29;20093;-70
2022/01/08 03:58:07;;;;;;;6.05;4.57;;;;;;;;;;4940795;29;20404;-68
2022/01/08 04:00:33;;;;;;;6.20;4.28;;;;;;;;;;4934257;28;20082;-69
2022/01/08 04:02:58;;;;;;;4.95;4.25;;;;;;;;;;4927939;28;20043;-69
2022/01/08 04:05:24;;;;;;;5.53;4.05;;;;;;;;;;4927063;29;20046;-68
2022/01/08 04:07:49;;;;;;;5.22;3.90;;;;;;;;;;4961025;28;20049;-67
2022/01/08 04:10:15;;;;;;;7.00;5.40;;;;;;;;;;4952129;28;20042;-68
2022/01/08 04:12:45;;;;;;;3.67;3.33;;;;;;;;;;4951332;28;20393;-68
2022/01/08 04:17:49;;;;;;;6.13;3.83;;;;;;;;;;4935368;29;20035;-70
2022/01/08 04:20:16;;;;;;;4.20;3.78;;;;;;;;;;4929769;28;20042;-68
2022/01/08 04:22:43;;;;;;;6.30;4.43;;;;;;;;;;4936494;28;20027;-68
2022/01/08 04:25:09;;;;;;;4.03;3.55;;;;;;;;;;4945382;28;20405;-69
2022/01/08 04:27:34;;;;;;;5.00;4.07;;;;;;;;;;4944371;28;21240;-71
2022/01/08 04:30:00;;;;;;;9.68;3.35;;;;;;;;;;4959955;28;20492;-70
2022/01/08 04:32:26;;;;;;;6.25;3.83;;;;;;;;;;4941831;28;22094;-71
2022/01/08 04:34:52;;;;;;;7.53;3.33;;;;;;;;;;4929261;28;20408;-68
2022/01/08 04:37:18;;;;;;;5.13;3.40;;;;;;;;;;4941371;28;20473;-71
2022/01/08 04:39:44;;;;;;;4.95;3.60;;;;;;;;;;4937124;29;20484;-70
2022/01/08 04:42:09;;;;;;;3.95;3.30;;;;;;;;;;4944190;28;20031;-67
2022/01/08 04:44:35;;;;;;;4.00;3.28;;;;;;;;;;4942809;28;20113;-69
2022/01/08 04:47:00;;;;;;;5.07;3.05;;;;;;;;;;4929460;28;20067;-67
2022/01/08 04:49:26;;;;;;;4.68;3.10;;;;;;;;;;4927623;29;20449;-67
2022/01/08 04:51:53;;;;;;;3.42;2.85;;;;;;;;;;4930771;29;20040;-69
2022/01/08 04:54:19;;;;;;;4.63;3.10;;;;;;;;;;4939406;28;20031;-71
2022/01/08 04:56:45;;;;;;;3.35;3.05;;;;;;;;;;4926416;28;20062;-67
2022/01/08 04:59:10;;;;;;;7.38;4.10;;;;;;;;;;4941291;29;20057;-67
2022/01/08 05:01:36;;;;;;;5.50;3.50;;;;;;;;;;4927569;29;20043;-67
2022/01/08 05:04:02;;;;;;;3.85;3.25;;;;;;;;;;4943559;28;20046;-67
2022/01/08 05:06:28;;;;;;;4.85;2.65;;;;;;;;;;4933892;28;20042;-69
2022/01/08 05:08:53;;;;;;;5.22;2.97;;;;;;;;;;4944184;28;20035;-68
2022/01/08 05:11:19;;;;;;;4.95;3.83;;;;;;;;;;4943855;28;20420;-68
2022/01/08 05:13:45;;;;;;;3.05;2.75;;;;;;;;;;4943840;28;20031;-68
2022/01/08 05:16:11;;;;;;;2.33;2.10;;;;;;;;;;4941497;28;20942;-68
2022/01/08 05:18:36;;;;;;;2.53;2.20;;;;;;;;;;4929465;28;20037;-67
2022/01/08 05:23:40;;;;;;;2.58;1.60;;;;;;;;;;4943153;29;20035;-67
2022/01/08 05:26:06;;;;;;;5.38;2.83;;;;;;;;;;4943795;28;20392;-68
2022/01/08 05:28:31;;;;;;;3.80;2.58;;;;;;;;;;4927179;28;20050;-70
2022/01/08 05:30:57;;;;;;;5.38;2.95;;;;;;;;;;4936395;28;20035;-66
2022/01/08 05:33:22;;;;;;;5.45;2.63;;;;;;;;;;4943074;28;20035;-70
2022/01/08 05:35:48;;;;;;;4.30;3.55;;;;;;;;;;4942643;29;20114;-68
2022/01/08 05:38:13;;;;;;;5.38;3.60;;;;;;;;;;4956849;28;20042;-68
2022/01/08 05:40:39;;;;;;;3.33;2.70;;;;;;;;;;4950056;28;20042;-69
2022/01/08 05:43:04;;;;;;;5.07;3.13;;;;;;;;;;4943269;28;20042;-68
2022/01/08 05:45:29;;;;;;;6.78;3.03;;;;;;;;;;4941714;28;20112;-68
2022/01/08 05:47:56;;;;;;;4.15;3.30;;;;;;;;;;4942861;28;20170;-68
2022/01/08 05:50:21;;;;;;;4.45;3.03;;;;;;;;;;4927617;28;20111;-69
2022/01/08 05:52:48;;;;;;;3.47;3.13;;;;;;;;;;4936163;28;20031;-69
2022/01/08 05:55:15;;;;;;;2.55;2.15;;;;;;;;;;4943768;29;20045;-67
2022/01/08 05:57:40;;;;;;;3.67;2.97;;;;;;;;;;4943627;28;20042;-67
2022/01/08 06:00:07;;;;;;;4.05;3.20;;;;;;;;;;4941707;28;20047;-67
2022/01/08 06:02:36;;;;;;;5.32;2.75;;;;;;;;;;4927601;28;20412;-71
2022/01/08 06:05:03;;;;;;;4.53;3.15;;;;;;;;;;4943374;29;20039;-68
2022/01/08 06:07:29;;;;;;;5.07;3.38;;;;;;;;;;4943230;28;20086;-67
2022/01/08 06:09:54;;;;;;;5.18;3.63;;;;;;;;;;4943604;28;20039;-67
2022/01/08 06:12:19;;;;;;;3.85;3.35;;;;;;;;;;4932814;28;20027;-70
2022/01/08 06:14:45;;;;;;;4.63;3.40;;;;;;;;;;4936023;29;20046;-67
2022/01/08 06:17:11;;;;;;;5.30;4.22;;;;;;;;;;4941132;28;20035;-67
2022/01/08 06:19:37;;;;;;;9.02;4.30;;;;;;;;;;4926315;29;20028;-67
2022/01/08 06:22:03;;;;;;;10.18;3.80;;;;;;;;;;4936463;28;20039;-68
2022/01/08 06:24:28;;;;;;;6.18;4.65;;;;;;;;;;4925683;28;20425;-68
2022/01/08 06:26:54;;;;;;;5.82;4.38;;;;;;;;;;4937088;29;20086;-67
2022/01/08 06:29:19;;;;;;;4.93;3.97;;;;;;;;;;4940121;29;20703;-70
2022/01/08 06:31:45;;;;;;;4.45;4.00;;;;;;;;;;4941536;29;20072;-67
2022/01/08 06:34:10;;;;;;;3.75;3.40;;;;;;;;;;4928926;28;20032;-69
2022/01/08 06:36:36;;;;;;;5.70;4.55;;;;;;;;;;4933179;28;20508;-68
2022/01/08 06:39:01;;;;;;;5.38;3.65;;;;;;;;;;4942974;28;20304;-68
2022/01/08 06:41:29;;;;;;;5.95;3.85;;;;;;;;;;4942678;28;20027;-68
2022/01/08 06:43:55;;;;;;;8.02;4.00;;;;;;;;;;4930674;28;20063;-70
2022/01/08 06:46:21;;;;;;;4.60;3.65;;;;;;;;;;4929710;28;20044;-68
2022/01/08 06:48:46;;;;;;;4.15;3.63;;;;;;;;;;4957895;28;20038;-67
2022/01/08 06:51:12;;;;;;;7.07;3.70;;;;;;;;;;4942860;28;20043;-68
2022/01/08 06:53:37;;;;;;;4.78;3.45;;;;;;;;;;4938752;28;20146;-68
2022/01/08 06:56:04;;;;;;;6.60;3.97;;;;;;;;;;4929975;28;20058;-68
2022/01/08 06:58:29;;;;;;;4.95;4.15;;;;;;;;;;4932599;28;20053;-68
2022/01/08 07:00:55;;;;;;;5.45;4.18;;;;;;;;;;4932791;28;20040;-68
2022/01/08 07:03:20;;;;;;;4.13;3.53;;;;;;;;;;4935564;28;20142;-68
2022/01/08 07:05:46;;;;;;;7.18;4.05;;;;;;;;;;4933780;28;20127;-68
2022/01/08 07:08:11;;;;;;;3.58;3.13;;;;;;;;;;4935661;28;20043;-67
2022/01/08 07:10:37;;;;;;;5.88;3.80;;;;;;;;;;4946101;28;20051;-67
2022/01/08 07:13:03;;;;;;;8.20;4.57;;;;;;;;;;4939056;29;20110;-67
2022/01/08 07:15:28;;;;;;;4.97;3.97;;;;;;;;;;4942595;28;20063;-67
2022/01/08 07:17:54;;;;;;;6.50;4.80;;;;;;;;;;4932666;28;20047;-68
2022/01/08 07:20:19;;;;;;;5.97;4.35;;;;;;;;;;4938070;28;20027;-66
2022/01/08 07:22:45;;;;;;;5.60;3.92;;;;;;;;;;4934493;29;20046;-68
2022/01/08 07:25:11;;;;;;;7.07;4.53;;;;;;;;;;4927401;29;20066;-69
2022/01/08 07:27:37;;;;;;;7.25;3.97;;;;;;;;;;4929287;28;20201;-67
2022/01/08 07:30:05;;;;;;;5.65;3.75;;;;;;;;;;4932144;28;20043;-69
2022/01/08 07:32:31;;;;;;;6.40;4.20;;;;;;;;;;4924773;29;20066;-69
2022/01/08 07:34:56;;;;;;;2.70;2.45;;;;;;;;;;4927289;29;20753;-68
2022/01/08 07:37:22;;;;;;;7.20;3.92;;;;;;;;;;4933812;28;20031;-68
2022/01/08 07:39:48;;;;;;;3.80;3.35;;;;;;;;;;4931682;28;20031;-68
2022/01/08 07:42:13;;;;;;;5.40;4.25;;;;;;;;;;4938634;28;20050;-69
2022/01/08 07:44:42;;;;;;;4.10;3.00;;;;;;;;;;4925975;29;20035;-68
2022/01/08 07:47:07;;;;;;;2.42;1.95;;;;;;;;;;4948488;28;20047;-69
2022/01/08 07:49:33;;;;;;;3.75;3.10;;;;;;;;;;4936576;28;20049;-69
2022/01/08 07:51:59;;;;;;;3.47;2.97;;;;;;;;;;4925946;28;20074;-69
2022/01/08 07:54:24;;;;;;;5.32;3.00;;;;;;;;;;4926628;29;20083;-69
2022/01/08 07:56:50;;;;;;;2.60;2.40;;;;;;;;;;4926843;29;20408;-69
2022/01/08 07:59:15;;;;;;;4.07;2.53;;;;;;;;;;4926550;28;20500;-69
2022/01/08 08:01:41;;;;;;;2.97;2.00;;;;;;;;;;4930013;28;20084;-69
2022/01/08 08:04:06;;;;;;;2.65;2.40;;;;;;;;;;4945265;28;20043;-68
2022/01/08 08:06:32;;;;;;;2.25;2.05;;;;;;;;;;4944974;28;20919;-68
2022/01/08 08:08:58;;;;;;;2.13;1.98;;;;;;;;;;4944512;29;20035;-68
2022/01/08 08:11:24;;;;;;;4.22;2.35;;;;;;;;;;4934429;28;20032;-69
2022/01/08 08:13:49;;;;;;;2.78;1.80;;;;;;;;;;4933650;28;20165;-69
2022/01/08 08:16:15;;;;;;;1.65;1.30;;;;;;;;;;4926039;29;20275;-69
2022/01/08 08:18:41;;;;;;;1.50;1.40;;;;;;;;;;4925399;29;20026;-69
2022/01/08 08:21:06;;;;;;;9.25;2.92;;;;;;;;;;4944162;28;20444;-68
2022/01/08 08:23:31;;;;;;;2.30;1.33;;;;;;;;;;4928850;28;20043;-68
2022/01/08 08:25:57;;;;;;;1.70;1.52;;;;;;;;;;4945202;28;20050;-69
2022/01/08 08:28:22;;;;;;;1.48;1.38;;;;;;;;;;4945154;28;20039;-69
2022/01/08 08:30:48;;;;;;;1.20;1.10;;;;;;;;;;4943267;28;20449;-69
2022/01/08 08:33:13;;;;;;;1.73;1.40;;;;;;;;;;4936989;28;20704;-69
2022/01/08 08:35:39;;;;;;;1.33;0.90;;;;;;;;;;4936279;28;20511;-68
2022/01/08 08:38:04;;;;;;;0.95;0.90;;;;;;;;;;4938760;28;21292;-69
2022/01/08 08:40:30;;;;;;;1.13;0.98;;;;;;;;;;4943261;29;20055;-68
2022/01/08 08:42:56;;;;;;;1.70;0.90;;;;;;;;;;4943234;29;20154;-70
2022/01/08 08:45:22;;;;;;;1.30;0.88;;;;;;;;;;4930854;28;20031;-67
2022/01/08 08:47:50;;;;;;;0.93;0.80;;;;;;;;;;4932395;29;20047;-68
2022/01/08 08:50:16;;;;;;;1.60;1.10;;;;;;;;;;4945555;28;20507;-67
2022/01/08 08:52:41;;;;;;;0.80;0.80;;;;;;;;;;4952363;28;20023;-67
2022/01/08 08:55:08;;;;;;;1.85;1.00;;;;;;;;;;4938115;28;20043;-66
2022/01/08 08:57:34;;;;;;;0.70;0.70;;;;;;;;;;4950163;28;20047;-67
2022/01/08 08:59:59;;;;;;;0.60;0.60;;;;;;;;;;4926059;29;20062;-67
2022/01/08 09:02:24;;;;;;;0.68;0.55;;;;;;;;;;4942046;29;20077;-69
2022/01/08 09:04:50;;;;;;;2.90;0.70;;;;;;;;;;4941781;29;20057;-67
2022/01/08 09:07:16;;;;;;;4.60;0.98;;;;;;;;;;4928782;28;20054;-66
2022/01/08 09:09:41;;;;;;;0.65;0.65;;;;;;;;;;4959888;28;20579;-66
2022/01/08 09:12:07;;;;;;;0.75;0.75;;;;;;;;;;4945040;28;20035;-67
2022/01/08 09:14:33;;;;;;;1.17;0.73;;;;;;;;;;4945047;29;20183;-66
2022/01/08 09:17:03;;;;;;;0.68;0.55;;;;;;;;;;4929112;28;20028;-66
2022/01/08 09:19:29;;;;;;;0.50;0.50;;;;;;;;;;4935057;28;20027;-66
2022/01/08 09:21:55;;;;;;;0.50;0.50;;;;;;;;;;4925791;29;20051;-67
2022/01/08 09:24:21;;;;;;;0.90;0.63;;;;;;;;;;4932358;29;20031;-67
2022/01/08 09:26:47;;;;;;;0.93;0.60;;;;;;;;;;4928745;29;20038;-70
2022/01/08 09:29:14;;;;;;;0.50;0.50;;;;;;;;;;4924893;28;20058;-69
2022/01/08 09:31:39;;;;;;;0.68;0.68;;;;;;;;;;4930998;28;20040;-68
2022/01/08 09:34:06;;;;;;;0.60;0.47;;;;;;;;;;4924796;29;21123;-68
2022/01/08 09:36:31;;;;;;;0.50;0.50;;;;;;;;;;4929773;29;20067;-67
2022/01/08 09:38:57;;;;;;;0.70;0.57;;;;;;;;;;4931134;28;20031;-68
2022/01/08 09:41:24;;;;;;;0.55;0.55;;;;;;;;;;4931854;28;20854;-67
2022/01/08 09:43:49;;;;;;;1.38;0.70;;;;;;;;;;4935927;29;20031;-67
2022/01/08 09:46:16;;;;;;;1.10;1.00;;;;;;;;;;4929689;28;20042;-68
2022/01/08 09:48:43;;;;;;;0.60;0.60;;;;;;;;;;4929580;29;20119;-67
2022/01/08 09:51:08;;;;;;;0.70;0.70;;;;;;;;;;4930979;28;20480;-68
2022/01/08 09:53:35;;;;;;;0.60;0.60;;;;;;;;;;4930435;28;20120;-68
2022/01/08 09:56:02;;;;;;;0.50;0.50;;;;;;;;;;4935883;29;20031;-68
2022/01/08 09:58:27;;;;;;;0.73;0.73;;;;;;;;;;4933490;29;20039;-68
2022/01/08 10:00:53;;;;;;;0.60;0.60;;;;;;;;;;4929273;28;20039;-67
2022/01/08 10:03:31;;;;;;;0.70;0.70;;;;;;;;;;4927920;28;20043;-68
2022/01/08 10:06:01;;;;;;;0.40;0.40;;;;;;;;;;4924251;29;20035;-69
2022/01/08 10:08:28;;;;;;;1.95;0.70;;;;;;;;;;4930257;29;20038;-69
2022/01/08 10:10:59;;;;;;;0.50;0.50;;;;;;;;;;4932266;29;20055;-69
2022/01/08 10:13:29;;;;;;;0.70;0.65;;;;;;;;;;4928127;28;20027;-68
2022/01/08 10:18:42;;;;;;;0.60;0.60;;;;;;;;;;4946571;28;20035;-69
2022/01/08 10:21:17;;;;;;;0.60;0.60;;;;;;;;;;4930318;29;20074;-69
2022/01/08 10:23:45;;;;;;;1.85;0.70;;;;;;;;;;4925882;28;20046;-69
2022/01/08 10:26:16;;;;;;;3.75;1.15;;;;;;;;;;4939032;28;20400;-68
2022/01/08 10:28:45;;;;;;;0.80;0.80;;;;;;;;;;4950018;28;20044;-68
2022/01/08 10:31:21;;;;;;;0.50;0.50;;;;;;;;;;4935159;29;20047;-68
2022/01/08 10:33:51;;;;;;;0.80;0.80;;;;;;;;;;4929732;28;20074;-69
2022/01/08 10:36:29;;;;;;;0.77;0.77;;;;;;;;;;4944162;28;20050;-68
2022/01/08 10:38:57;;;;;;;0.70;0.70;;;;;;;;;;4943116;29;20031;-68
2022/01/08 10:41:23;;;;;;;0.73;0.73;;;;;;;;;;4930931;28;20044;-68
2022/01/08 10:44:04;;;;;;;0.82;0.70;;;;;;;;;;4924473;29;20050;-69
2022/01/08 10:46:30;;;;;;;2.73;0.80;;;;;;;;;;4927039;28;20054;-69
2022/01/08 10:48:55;;;;;;;0.73;0.73;;;;;;;;;;4933828;29;20035;-68
2022/01/08 10:51:25;;;;;;;0.93;0.90;;;;;;;;;;4930343;28;20035;-68
2022/01/08 10:54:01;;;;;;;0.70;0.70;;;;;;;;;;4938470;28;20047;-69
2022/01/08 10:56:40;;;;;;;0.68;0.68;;;;;;;;;;4933451;28;20607;-68
2022/01/08 10:59:11;;;;;;;0.77;0.77;;;;;;;;;;4923403;28;20054;-69
2022/01/08 11:01:43;;;;;;;2.60;0.90;;;;;;;;;;4948304;28;20567;-69
2022/01/08 11:04:11;;;;;;;0.98;0.98;;;;;;;;;;4924654;29;20024;-68
2022/01/08 11:06:57;;;;;;;1.23;0.82;;;;;;;;;;4927811;28;20077;-69
2022/01/08 11:09:25;;;;;;;0.80;0.80;;;;;;;;;;4928337;28;20031;-69
2022/01/08 11:11:51;;;;;;;1.05;1.05;;;;;;;;;;4927664;28;20063;-69
2022/01/08 11:14:44;;;;;;;1.33;1.23;;;;;;;;;;4928575;28;20035;-69
2022/01/08 11:17:09;;;;;;;2.25;0.90;;;;;;;;;;4925776;28;20028;-69
2022/01/08 11:19:37;;;;;;;3.47;1.20;;;;;;;;;;4936966;28;20035;-71
2022/01/08 11:22:04;;;;;;;1.25;1.08;;;;;;;;;;4934546;29;20135;-71
2022/01/08 11:24:31;;;;;;;0.70;0.70;;;;;;;;;;4932402;28;20046;-70
2022/01/08 11:26:58;;;;;;;0.80;0.80;;;;;;;;;;4937334;29;20091;-71
2022/01/08 11:29:25;;;;;;;1.95;1.30;;;;;;;;;;4937345;28;20042;-70
2022/01/08 11:31:55;;;;;;;0.93;0.93;;;;;;;;;;4929132;28;20142;-71
2022/01/08 11:34:24;;;;;;;1.58;0.95;;;;;;;;;;4936358;29;20027;-71
2022/01/08 11:36:50;;;;;;;1.63;1.42;;;;;;;;;;4931550;29;20507;-70
2022/01/08 11:39:17;;;;;;;1.73;1.30;;;;;;;;;;4928111;28;20163;-71
2022/01/08 11:41:45;;;;;;;1.83;1.27;;;;;;;;;;4937960;28;20037;-71
2022/01/08 11:44:11;;;;;;;0.90;0.90;;;;;;;;;;4929093;29;20040;-73
2022/01/08 11:46:38;;;;;;;1.58;1.45;;;;;;;;;;4927785;28;20044;-71
2022/01/08 11:49:04;;;;;;;1.33;1.15;;;;;;;;;;4940680;29;20039;-70
2022/01/08 11:51:31;;;;;;;1.02;1.02;;;;;;;;;;4938653;28;20094;-70
2022/01/08 11:53:59;;;;;;;0.93;0.93;;;;;;;;;;4940529;28;20058;-70
2022/01/08 11:56:36;;;;;;;1.10;1.10;;;;;;;;;;4935430;28;20049;-70
2022/01/08 11:59:05;;;;;;;2.08;1.58;;;;;;;;;;4940957;28;20043;-72
2022/01/08 12:01:31;;;;;;;1.52;1.42;;;;;;;;;;4937384;28;20496;-69
2022/01/08 12:03:56;;;;;;;2.63;1.45;;;;;;;;;;4932417;28;20035;-69
2022/01/08 12:06:33;;;;;;;1.52;1.42;;;;;;;;;;4928804;29;20130;-68
2022/01/08 12:09:10;;;;;;;1.52;1.42;;;;;;;;;;4920786;29;20039;-70
2022/01/08 12:11:41;;;;;;;1.42;1.25;;;;;;;;;;4944557;28;20134;-73
2022/01/08 12:14:12;;;;;;;1.67;1.58;;;;;;;;;;4943789;28;20027;-69
2022/01/08 12:16:42;;;;;;;1.02;1.02;;;;;;;;;;4929622;28;20032;-73
2022/01/08 12:19:26;;;;;;;1.13;1.13;;;;;;;;;;4931034;29;20043;-71
2022/01/08 12:21:52;;;;;;;1.85;1.25;;;;;;;;;;4934385;28;20169;-70
2022/01/08 12:24:27;;;;;;;1.60;1.50;;;;;;;;;;4941169;28;20035;-69
2022/01/08 12:26:54;;;;;;;1.63;1.40;;;;;;;;;;4935761;28;20043;-71
2022/01/08 12:29:38;;;;;;;1.45;1.25;;;;;;;;;;4930650;29;20074;-71
2022/01/08 12:32:20;;;;;;;1.25;1.25;;;;;;;;;;4939718;29;20035;-70
2022/01/08 12:34:48;;;;;;;0.88;0.88;;;;;;;;;;4948379;28;20035;-69
2022/01/08 12:37:15;;;;;;;1.25;1.15;;;;;;;;;;4933288;28;20664;-70
2022/01/08 12:39:52;;;;;;;1.70;1.55;;;;;;;;;;4936986;29;20039;-70
2022/01/08 12:42:23;;;;;;;1.70;1.58;;;;;;;;;;4936725;29;20062;-67
2022/01/08 12:45:04;;;;;;;1.13;1.10;;;;;;;;;;4934078;29;20098;-67
2022/01/08 12:47:53;;;;;;;1.25;1.15;;;;;;;;;;4935835;28;20035;-69
2022/01/08 12:50:44;;;;;;;0.73;0.73;;;;;;;;;;4937499;29;20381;-70
2022/01/08 12:53:12;;;;;;;0.90;0.90;;;;;;;;;;4933286;29;20036;-72
2022/01/08 12:55:40;;;;;;;0.93;0.85;;;;;;;;;;4936353;29;20087;-70
2022/01/08 12:58:18;;;;;;;1.52;1.42;;;;;;;;;;4932756;28;20038;-70
2022/01/08 13:01:14;;;;;;;1.30;1.20;;;;;;;;;;4929143;29;20035;-70
2022/01/08 13:03:46;;;;;;;1.80;1.02;;;;;;;;;;4942057;29;20141;-71
2022/01/08 13:06:14;;;;;;;1.95;1.40;;;;;;;;;;4937529;28;20035;-71
2022/01/08 13:08:41;;;;;;;0.90;0.88;;;;;;;;;;4933831;28;20604;-71
2022/01/08 13:11:09;;;;;;;1.33;1.23;;;;;;;;;;4940253;28;20058;-70
2022/01/08 13:13:48;;;;;;;2.20;1.10;;;;;;;;;;4927044;29;20036;-69
2022/01/08 13:16:26;;;;;;;6.13;2.00;;;;;;;;;;4940940;29;20134;-69
2022/01/08 13:19:17;;;;;;;1.70;1.60;;;;;;;;;;4932888;28;20050;-70
2022/01/08 13:21:54;;;;;;;1.83;1.17;;;;;;;;;;4929261;28;20054;-69
2022/01/08 13:24:28;;;;;;;1.15;0.95;;;;;;;;;;4955102;28;20055;-69
2022/01/08 13:26:59;;;;;;;1.42;1.33;;;;;;;;;;4944460;28;20038;-69
2022/01/08 13:29:28;;;;;;;1.37;1.10;;;;;;;;;;4941580;28;20066;-69
2022/01/08 13:31:56;;;;;;;0.95;0.95;;;;;;;;;;4930979;28;20283;-69
2022/01/08 13:34:23;;;;;;;1.10;1.00;;;;;;;;;;4939751;29;20043;-69
2022/01/08 13:36:58;;;;;;;0.77;0.77;;;;;;;;;;4927450;28;20042;-69
2022/01/08 13:39:34;;;;;;;1.00;0.90;;;;;;;;;;4928284;29;20059;-68
2022/01/08 13:42:12;;;;;;;3.85;1.42;;;;;;;;;;4927737;28;20074;-71
2022/01/08 13:44:41;;;;;;;0.75;0.75;;;;;;;;;;4929837;28;20123;-70
2022/01/08 13:47:17;;;;;;;1.35;1.25;;;;;;;;;;4944171;28;20039;-71
2022/01/08 13:49:46;;;;;;;1.10;1.00;;;;;;;;;;4944840;28;20039;-71
2022/01/08 13:52:18;;;;;;;1.13;1.02;;;;;;;;;;4927234;28;20075;-71
2022/01/08 13:54:43;;;;;;;2.33;1.03;;;;;;;;;;4926836;28;20047;-71
2022/01/08 13:57:14;;;;;;;1.77;0.90;;;;;;;;;;4925666;29;20115;-73
2022/01/08 13:59:39;;;;;;;0.82;0.82;;;;;;;;;;4926893;28;20126;-70
2022/01/08 14:02:05;;;;;;;0.60;0.60;;;;;;;;;;4928919;29;20104;-72
2022/01/08 14:04:30;;;;;;;0.88;0.60;;;;;;;;;;4942006;28;20047;-71
2022/01/08 14:06:57;;;;;;;0.85;0.80;;;;;;;;;;4926398;29;20043;-71
2022/01/08 14:09:23;;;;;;;0.70;0.70;;;;;;;;;;4941681;28;20039;-69
2022/01/08 14:11:49;;;;;;;1.48;0.80;;;;;;;;;;4926013;29;20054;-69
2022/01/08 14:14:20;;;;;;;0.40;0.40;;;;;;;;;;4925684;28;20046;-69
2022/01/08 14:16:46;;;;;;;0.80;0.80;;;;;;;;;;4924294;28;20086;-70
2022/01/08 14:19:17;;;;;;;0.70;0.70;;;;;;;;;;4925759;29;20027;-71
2022/01/08 14:21:55;;;;;;;1.05;1.00;;;;;;;;;;4925983;29;20046;-68
2022/01/08 14:24:23;;;;;;;0.65;0.65;;;;;;;;;;4926640;28;20039;-70
2022/01/08 14:27:03;;;;;;;0.80;0.80;;;;;;;;;;4927592;28;20067;-68
2022/01/08 14:29:30;;;;;;;1.20;1.10;;;;;;;;;;4927652;28;20036;-70
2022/01/08 14:31:58;;;;;;;1.17;1.08;;;;;;;;;;4927771;29;20039;-70
2022/01/08 14:34:24;;;;;;;3.70;0.95;;;;;;;;;;4927537;29;20496;-70
2022/01/08 14:36:52;;;;;;;0.80;0.80;;;;;;;;;;4933762;28;20035;-70
2022/01/08 14:39:30;;;;;;;0.65;0.65;;;;;;;;;;4934223;28;20142;-70
2022/01/08 14:41:57;;;;;;;2.40;1.45;;;;;;;;;;4931455;28;20042;-70
2022/01/08 14:44:24;;;;;;;1.05;0.98;;;;;;;;;;4940232;28;20183;-69
2022/01/08 14:46:50;;;;;;;0.55;0.55;;;;;;;;;;4937845;28;20027;-70
2022/01/08 14:49:15;;;;;;;0.73;0.73;;;;;;;;;;4937671;28;20126;-70
2022/01/08 14:51:41;;;;;;;0.70;0.70;;;;;;;;;;4931207;28;20043;-69
2022/01/08 14:54:08;;;;;;;0.85;0.68;;;;;;;;;;4929968;28;20118;-68
2022/01/08 14:56:41;;;;;;;3.22;1.00;;;;;;;;;;4934214;29;20043;-68
2022/01/08 14:59:08;;;;;;;0.90;0.90;;;;;;;;;;4935548;28;20046;-68
2022/01/08 15:01:35;;;;;;;1.40;0.95;;;;;;;;;;4932854;28;20048;-68
2022/01/08 15:04:01;;;;;;;0.88;0.73;;;;;;;;;;4934183;29;20039;-68
2022/01/08 15:06:27;;;;;;;1.17;0.90;;;;;;;;;;4932402;29;20042;-68
2022/01/08 15:08:53;;;;;;;1.13;0.82;;;;;;;;;;4932684;28;20098;-68
2022/01/08 15:11:19;;;;;;;1.63;0.80;;;;;;;;;;4933413;28;20571;-70